createdAt,value
2017-09-15T00:00:04.771Z,1.87
2017-09-15T00:02:33.887Z,1.70
2017-09-15T00:05:02.981Z,2.10
2017-09-15T00:07:32.060Z,1.57
2017-09-15T00:10:00.413Z,1.80
2017-09-15T00:12:28.765Z,1.70
2017-09-15T00:14:57.149Z,1.73
2017-09-15T00:17:25.474Z,1.27
2017-09-15T00:19:53.933Z,2.10
2017-09-15T00:22:22.257Z,1.53
2017-09-15T00:24:51.351Z,1.67
2017-09-15T00:27:20.464Z,1.67
2017-09-15T00:29:48.799Z,1.70
2017-09-15T00:32:17.165Z,1.37
2017-09-15T00:34:45.497Z,1.70
2017-09-15T00:37:13.841Z,1.87
2017-09-15T00:39:42.189Z,1.57
2017-09-15T00:42:10.525Z,1.47
2017-09-15T00:44:39.642Z,1.80
2017-09-15T00:47:07.973Z,2.07
2017-09-15T00:49:36.568Z,2.00
2017-09-15T00:52:04.893Z,2.20
2017-09-15T00:54:33.205Z,1.70
2017-09-15T00:57:01.564Z,2.13
2017-09-15T00:59:29.878Z,2.03
2017-09-15T01:01:58.216Z,2.17
2017-09-15T01:04:26.531Z,2.30
2017-09-15T01:06:54.881Z,1.90
2017-09-15T01:09:23.210Z,1.50
2017-09-15T01:11:52.327Z,2.50
2017-09-15T01:14:20.662Z,1.40
2017-09-15T01:16:48.975Z,1.50
2017-09-15T01:19:18.087Z,1.43
2017-09-15T01:21:46.437Z,1.70
2017-09-15T01:24:15.517Z,1.60
2017-09-15T01:26:44.104Z,2.20
2017-09-15T01:29:12.428Z,1.60
2017-09-15T01:31:40.758Z,1.70
2017-09-15T01:34:09.102Z,2.17
2017-09-15T01:36:37.413Z,1.70
2017-09-15T01:39:06.018Z,1.63
2017-09-15T01:41:34.336Z,1.23
2017-09-15T01:44:02.667Z,1.80
2017-09-15T01:46:31.023Z,1.83
2017-09-15T01:48:59.348Z,1.43
2017-09-15T01:51:28.718Z,2.03
2017-09-15T01:53:57.061Z,1.77
2017-09-15T01:56:25.384Z,2.03
2017-09-15T01:58:53.729Z,1.80
2017-09-15T02:01:22.089Z,1.70
2017-09-15T02:03:50.445Z,1.30
2017-09-15T02:06:19.558Z,1.70
2017-09-15T02:08:47.903Z,1.50
2017-09-15T02:11:16.257Z,1.50
2017-09-15T02:13:44.588Z,2.13
2017-09-15T02:16:13.237Z,2.30
2017-09-15T02:18:41.573Z,1.57
2017-09-15T02:21:09.925Z,1.40
2017-09-15T02:23:39.049Z,2.30
2017-09-15T02:26:07.382Z,1.63
2017-09-15T02:28:35.990Z,1.50
2017-09-15T02:31:05.070Z,1.60
2017-09-15T02:33:33.389Z,1.77
2017-09-15T02:36:01.739Z,1.77
2017-09-15T02:38:30.109Z,1.50
2017-09-15T02:40:58.696Z,1.87
2017-09-15T02:43:27.789Z,1.60
2017-09-15T02:45:56.197Z,1.70
2017-09-15T02:48:25.326Z,1.90
2017-09-15T02:50:53.699Z,1.40
2017-09-15T02:53:22.311Z,2.27
2017-09-15T02:55:50.645Z,2.07
2017-09-15T02:58:18.973Z,1.77
2017-09-15T03:00:47.395Z,1.80
2017-09-15T03:03:16.500Z,1.60
2017-09-15T03:05:44.945Z,1.70
2017-09-15T03:08:14.035Z,1.50
2017-09-15T03:10:42.937Z,1.57
2017-09-15T03:13:11.267Z,1.80
2017-09-15T03:15:39.575Z,1.93
2017-09-15T03:18:07.906Z,1.73
2017-09-15T03:20:36.225Z,1.57
2017-09-15T03:23:04.570Z,1.67
2017-09-15T03:25:32.915Z,2.00
2017-09-15T03:28:01.244Z,1.67
2017-09-15T03:30:29.844Z,1.70
2017-09-15T03:32:58.181Z,1.83
2017-09-15T03:35:26.498Z,2.10
2017-09-15T03:37:54.835Z,2.00
2017-09-15T03:40:23.926Z,1.93
2017-09-15T03:42:53.181Z,1.60
2017-09-15T03:45:21.528Z,4.03
2017-09-15T03:47:49.843Z,2.20
2017-09-15T03:50:18.178Z,2.13
2017-09-15T03:52:46.502Z,2.30
2017-09-15T03:55:14.894Z,2.40
2017-09-15T03:57:43.235Z,2.33
2017-09-15T04:00:12.530Z,2.30
2017-09-15T04:02:40.859Z,2.00
2017-09-15T04:05:09.181Z,1.60
2017-09-15T04:07:37.523Z,1.87
2017-09-15T04:10:05.871Z,2.67
2017-09-15T04:12:34.197Z,2.10
2017-09-15T04:15:03.316Z,2.40
2017-09-15T04:17:31.630Z,2.00
2017-09-15T04:20:00.226Z,1.93
2017-09-15T04:22:28.563Z,2.20
2017-09-15T04:24:56.889Z,2.07
2017-09-15T04:27:25.225Z,2.77
2017-09-15T04:29:53.573Z,2.10
2017-09-15T04:32:22.692Z,2.30
2017-09-15T04:34:51.038Z,2.80
2017-09-15T04:37:20.152Z,4.10
2017-09-15T04:39:48.497Z,2.70
2017-09-15T04:42:16.844Z,2.77
2017-09-15T04:44:45.184Z,3.33
2017-09-15T04:47:14.281Z,2.53
2017-09-15T04:49:43.396Z,16.67
2017-09-15T04:52:11.741Z,3.30
2017-09-15T04:54:40.070Z,3.70
2017-09-15T04:57:08.412Z,3.70
2017-09-15T04:59:37.510Z,2.90
2017-09-15T05:02:05.822Z,3.30
2017-09-15T05:04:34.178Z,3.30
2017-09-15T05:07:03.278Z,2.50
2017-09-15T05:09:31.638Z,3.13
2017-09-15T05:12:00.010Z,3.37
2017-09-15T05:14:28.344Z,2.73
2017-09-15T05:16:57.109Z,2.83
2017-09-15T05:19:25.450Z,2.50
2017-09-15T05:21:53.779Z,2.20
2017-09-15T05:24:22.133Z,2.60
2017-09-15T05:26:51.247Z,2.50
2017-09-15T05:29:19.580Z,3.20
2017-09-15T05:31:47.922Z,2.70
2017-09-15T05:34:17.109Z,2.50
2017-09-15T05:36:45.495Z,3.03
2017-09-15T05:39:13.812Z,2.90
2017-09-15T05:41:42.169Z,2.90
2017-09-15T05:44:12.391Z,2.33
2017-09-15T05:46:42.115Z,2.87
2017-09-15T05:49:10.475Z,2.67
2017-09-15T05:51:39.479Z,2.67
2017-09-15T05:54:08.309Z,3.53
2017-09-15T05:56:37.229Z,2.93
2017-09-15T05:59:07.014Z,3.10
2017-09-15T06:01:35.656Z,3.40
2017-09-15T06:04:04.590Z,4.33
2017-09-15T06:06:33.411Z,4.50
2017-09-15T06:09:02.065Z,4.03
2017-09-15T06:11:30.749Z,5.93
2017-09-15T06:13:59.788Z,5.60
2017-09-15T06:16:28.153Z,5.77
2017-09-15T06:18:56.491Z,6.90
2017-09-15T06:21:26.806Z,6.90
2017-09-15T06:23:55.639Z,7.00
2017-09-15T06:26:24.529Z,7.80
2017-09-15T06:28:54.123Z,6.93
2017-09-15T06:31:23.441Z,8.97
2017-09-15T06:33:52.519Z,9.27
2017-09-15T06:36:22.219Z,8.47
2017-09-15T06:38:53.018Z,7.90
2017-09-15T06:41:22.715Z,7.40
2017-09-15T06:43:52.499Z,9.77
2017-09-15T06:46:21.332Z,8.10
2017-09-15T06:48:50.028Z,8.13
2017-09-15T06:51:19.554Z,8.40
2017-09-15T06:53:48.875Z,9.90
2017-09-15T06:56:17.385Z,9.47
2017-09-15T06:58:46.564Z,9.97
2017-09-15T07:01:16.409Z,9.40
2017-09-15T07:03:46.986Z,9.27
2017-09-15T07:06:16.446Z,10.00
2017-09-15T07:08:46.149Z,9.17
2017-09-15T07:11:16.185Z,8.73
2017-09-15T07:13:46.546Z,10.00
2017-09-15T07:16:16.214Z,8.67
2017-09-15T07:18:45.328Z,8.50
2017-09-15T07:21:16.020Z,8.27
2017-09-15T07:23:46.273Z,8.43
2017-09-15T07:26:16.393Z,8.23
2017-09-15T07:28:46.925Z,8.00
2017-09-15T07:31:16.780Z,6.83
2017-09-15T07:33:46.242Z,8.10
2017-09-15T07:36:16.954Z,8.07
2017-09-15T07:38:46.464Z,7.67
2017-09-15T07:41:16.020Z,7.30
2017-09-15T07:43:45.515Z,6.70
2017-09-15T07:46:13.970Z,7.60
2017-09-15T07:48:42.314Z,7.17
2017-09-15T07:51:11.958Z,8.13
2017-09-15T07:53:40.471Z,8.67
2017-09-15T07:56:11.412Z,8.47
2017-09-15T07:58:40.148Z,8.03
2017-09-15T08:01:10.325Z,7.83
2017-09-15T08:03:39.904Z,7.07
2017-09-15T08:06:09.208Z,7.93
2017-09-15T08:08:40.527Z,7.10
2017-09-15T08:11:10.373Z,6.30
2017-09-15T08:13:39.664Z,7.30
2017-09-15T08:16:10.170Z,6.67
2017-09-15T08:18:41.957Z,7.47
2017-09-15T08:21:11.250Z,7.10
2017-09-15T08:23:41.631Z,6.10
2017-09-15T08:26:12.514Z,6.17
2017-09-15T08:28:42.851Z,5.00
2017-09-15T08:31:14.012Z,6.50
2017-09-15T08:33:45.033Z,6.30
2017-09-15T08:36:14.896Z,5.70
2017-09-15T08:38:45.179Z,6.00
2017-09-15T08:41:14.376Z,7.10
2017-09-15T08:43:43.513Z,6.70
2017-09-15T08:46:11.880Z,6.40
2017-09-15T08:48:40.241Z,6.63
2017-09-15T08:51:08.609Z,5.80
2017-09-15T08:53:37.706Z,5.50
2017-09-15T08:56:06.048Z,6.20
2017-09-15T08:58:34.411Z,5.93
2017-09-15T09:01:02.746Z,6.13
2017-09-15T09:03:31.866Z,6.00
2017-09-15T09:06:00.196Z,5.20
2017-09-15T09:08:28.556Z,5.23
2017-09-15T09:10:56.916Z,5.70
2017-09-15T09:13:25.270Z,6.30
2017-09-15T09:15:53.627Z,6.70
2017-09-15T09:18:22.725Z,7.20
2017-09-15T09:20:51.082Z,6.00
2017-09-15T09:23:19.410Z,7.23
2017-09-15T09:25:47.759Z,6.53
2017-09-15T09:28:16.100Z,6.83
2017-09-15T09:30:44.435Z,7.10
2017-09-15T09:33:13.560Z,7.27
2017-09-15T09:35:41.914Z,7.20
2017-09-15T09:38:10.279Z,9.50
2017-09-15T09:40:39.381Z,8.57
2017-09-15T09:43:08.073Z,8.27
2017-09-15T09:45:37.246Z,9.60
2017-09-15T09:48:10.073Z,8.67
2017-09-15T09:50:38.429Z,10.10
2017-09-15T09:53:06.759Z,10.10
2017-09-15T09:55:35.128Z,9.17
2017-09-15T09:58:03.459Z,8.90
2017-09-15T10:00:31.862Z,8.50
2017-09-15T10:03:00.208Z,8.17
2017-09-15T10:05:28.569Z,8.80
2017-09-15T10:07:56.912Z,8.87
2017-09-15T10:10:25.346Z,10.17
2017-09-15T10:12:53.718Z,8.20
2017-09-15T10:15:22.050Z,8.60
2017-09-15T10:17:50.396Z,7.43
2017-09-15T10:20:18.776Z,6.40
2017-09-15T10:22:47.184Z,6.33
2017-09-15T10:25:15.542Z,4.03
2017-09-15T10:27:43.870Z,3.43
2017-09-15T10:30:12.213Z,3.80
2017-09-15T10:32:40.572Z,3.10
2017-09-15T10:35:08.930Z,3.70
2017-09-15T10:37:37.258Z,3.53
2017-09-15T10:40:05.597Z,3.00
2017-09-15T10:42:33.982Z,3.40
2017-09-15T10:45:03.105Z,3.00
2017-09-15T10:47:31.447Z,3.03
2017-09-15T10:49:59.795Z,3.10
2017-09-15T10:52:28.159Z,3.20
2017-09-15T10:54:56.572Z,2.77
2017-09-15T10:57:24.938Z,3.70
2017-09-15T11:02:53.609Z,3.43
2017-09-15T11:05:22.707Z,2.80
2017-09-15T11:07:51.050Z,2.90
2017-09-15T11:10:19.425Z,2.83
2017-09-15T11:12:47.739Z,2.97
2017-09-15T11:15:16.862Z,3.33
2017-09-15T11:17:45.221Z,2.93
2017-09-15T11:20:13.543Z,3.27
2017-09-15T11:22:41.910Z,3.60
2017-09-15T11:25:10.250Z,2.90
2017-09-15T11:27:39.670Z,3.13
2017-09-15T11:30:07.992Z,3.57
2017-09-15T11:32:36.321Z,3.27
2017-09-15T11:35:05.470Z,3.90
2017-09-15T11:37:33.804Z,3.37
2017-09-15T11:40:02.156Z,3.43
2017-09-15T11:42:30.490Z,3.60
2017-09-15T11:44:58.853Z,4.30
2017-09-15T11:47:27.198Z,3.53
2017-09-15T11:49:55.515Z,3.33
2017-09-15T11:52:23.850Z,2.83
2017-09-15T11:54:52.166Z,1.50
2017-09-15T11:57:20.506Z,1.90
2017-09-15T11:59:49.600Z,1.53
2017-09-15T12:02:17.957Z,2.23
2017-09-15T12:04:46.276Z,1.90
2017-09-15T12:07:14.652Z,2.10
2017-09-15T12:09:43.012Z,2.50
2017-09-15T12:12:11.354Z,2.50
2017-09-15T12:14:39.733Z,2.60
2017-09-15T12:17:08.077Z,2.60
2017-09-15T12:19:37.287Z,2.63
2017-09-15T12:22:05.614Z,2.77
2017-09-15T12:24:33.943Z,5.00
2017-09-15T12:27:02.374Z,3.60
2017-09-15T12:29:30.797Z,2.70
2017-09-15T12:31:59.127Z,2.90
2017-09-15T12:34:27.476Z,3.50
2017-09-15T12:36:55.815Z,3.10
2017-09-15T12:39:24.151Z,2.17
2017-09-15T12:41:52.498Z,1.97
2017-09-15T12:44:20.851Z,2.23
2017-09-15T12:46:49.188Z,2.07
2017-09-15T12:49:17.597Z,1.83
2017-09-15T12:51:45.957Z,1.80
2017-09-15T12:54:14.301Z,1.97
2017-09-15T12:56:42.635Z,2.00
2017-09-15T12:59:10.993Z,3.10
2017-09-15T13:01:39.349Z,2.10
2017-09-15T13:04:07.682Z,1.90
2017-09-15T13:06:36.055Z,1.90
2017-09-15T13:09:04.401Z,2.20
2017-09-15T13:11:32.759Z,2.10
2017-09-15T13:14:01.885Z,2.00
2017-09-15T13:16:30.220Z,1.60
2017-09-15T13:18:59.336Z,1.80
2017-09-15T13:21:27.708Z,2.03
2017-09-15T13:23:56.073Z,1.70
2017-09-15T13:26:24.412Z,1.40
2017-09-15T13:28:53.061Z,1.70
2017-09-15T13:31:21.405Z,1.43
2017-09-15T13:33:49.753Z,1.50
2017-09-15T13:36:18.109Z,1.70
2017-09-15T13:38:46.433Z,1.40
2017-09-15T13:41:14.882Z,1.47
2017-09-15T13:43:43.213Z,1.50
2017-09-15T13:46:12.645Z,1.80
2017-09-15T13:48:40.985Z,1.63
2017-09-15T13:51:09.321Z,1.47
2017-09-15T13:53:37.688Z,1.27
2017-09-15T13:56:06.032Z,1.60
2017-09-15T13:58:34.408Z,1.47
2017-09-15T14:01:02.744Z,1.43
2017-09-15T14:03:31.584Z,1.33
2017-09-15T14:05:59.920Z,1.33
2017-09-15T14:08:28.265Z,1.40
2017-09-15T14:10:56.635Z,1.50
2017-09-15T14:13:25.740Z,1.60
2017-09-15T14:15:54.096Z,1.53
2017-09-15T14:18:22.417Z,1.60
2017-09-15T14:20:50.803Z,1.57
2017-09-15T14:23:19.120Z,1.40
2017-09-15T14:25:47.479Z,7.60
2017-09-15T14:28:15.921Z,1.53
2017-09-15T14:30:45.241Z,1.60
2017-09-15T14:33:13.619Z,1.67
2017-09-15T14:35:41.991Z,2.63
2017-09-15T14:38:11.296Z,1.53
2017-09-15T14:40:39.710Z,1.40
2017-09-15T14:43:08.052Z,1.73
2017-09-15T14:45:36.478Z,1.40
2017-09-15T14:48:04.795Z,2.90
2017-09-15T14:50:34.181Z,2.00
2017-09-15T14:53:03.710Z,1.90
2017-09-15T14:55:33.035Z,1.73
2017-09-15T14:58:03.228Z,1.87
2017-09-15T15:00:32.519Z,1.80
2017-09-15T15:03:01.843Z,1.60
2017-09-15T15:05:31.168Z,1.40
2017-09-15T15:08:00.443Z,1.73
2017-09-15T15:10:29.741Z,1.50
2017-09-15T15:12:58.142Z,4.63
2017-09-15T15:15:26.475Z,1.20
2017-09-15T15:17:55.816Z,1.60
2017-09-15T15:20:34.592Z,1.50
2017-09-15T15:23:02.961Z,1.30
2017-09-15T15:25:32.324Z,1.30
2017-09-15T15:28:00.682Z,1.30
2017-09-15T15:30:32.139Z,1.10
2017-09-15T15:33:05.815Z,1.30
2017-09-15T15:35:35.657Z,1.60
2017-09-15T15:38:06.813Z,4.77
2017-09-15T15:40:36.508Z,1.17
2017-09-15T15:43:05.712Z,1.20
2017-09-15T15:45:39.991Z,1.77
2017-09-15T15:48:08.307Z,1.70
2017-09-15T15:50:38.531Z,1.27
2017-09-15T15:53:12.768Z,1.43
2017-09-15T15:55:44.525Z,1.20
2017-09-15T15:58:13.158Z,1.50
2017-09-15T16:00:41.591Z,1.30
2017-09-15T16:03:09.952Z,2.57
2017-09-15T16:05:39.274Z,1.50
2017-09-15T16:08:07.678Z,1.33
2017-09-15T16:10:36.071Z,1.63
2017-09-15T16:13:04.417Z,1.30
2017-09-15T16:15:32.889Z,1.30
2017-09-15T16:18:01.271Z,1.30
2017-09-15T16:20:29.764Z,1.40
2017-09-15T16:22:58.278Z,1.10
2017-09-15T16:25:26.628Z,1.53
2017-09-15T16:27:55.025Z,1.40
2017-09-15T16:30:24.277Z,1.47
2017-09-15T16:32:53.877Z,1.73
2017-09-15T16:35:22.278Z,1.20
2017-09-15T16:37:50.965Z,1.50
2017-09-15T16:40:25.832Z,1.30
2017-09-15T16:42:59.556Z,1.43
2017-09-15T16:45:35.365Z,2.23
2017-09-15T16:48:09.473Z,1.57
2017-09-15T16:50:37.825Z,1.57
2017-09-15T16:53:07.344Z,1.57
2017-09-15T16:55:35.754Z,1.40
2017-09-15T16:58:07.179Z,1.43
2017-09-15T17:00:35.821Z,1.67
2017-09-15T17:03:04.918Z,1.67
2017-09-15T17:05:33.256Z,2.00
2017-09-15T17:08:02.563Z,1.47
2017-09-15T17:10:31.675Z,1.77
2017-09-15T17:13:02.137Z,1.63
2017-09-15T17:15:31.421Z,1.47
2017-09-15T17:18:05.909Z,1.40
2017-09-15T17:20:36.191Z,1.30
2017-09-15T17:23:05.735Z,1.57
2017-09-15T17:25:35.972Z,1.60
2017-09-15T17:28:04.315Z,1.80
2017-09-15T17:30:36.458Z,1.93
2017-09-15T17:33:06.737Z,1.50
2017-09-15T17:35:39.331Z,2.20
2017-09-15T17:38:07.699Z,1.60
2017-09-15T17:40:39.122Z,1.70
2017-09-15T17:43:07.530Z,1.80
2017-09-15T17:45:36.641Z,2.03
2017-09-15T17:48:05.001Z,2.27
2017-09-15T17:50:34.103Z,3.30
2017-09-15T17:53:02.460Z,2.23
2017-09-15T17:55:30.794Z,2.83
2017-09-15T17:57:59.455Z,3.70
2017-09-15T18:00:27.780Z,2.87
2017-09-15T18:02:56.095Z,2.60
2017-09-15T18:05:25.428Z,2.20
2017-09-15T18:07:54.908Z,2.50
2017-09-15T18:10:24.285Z,2.60
2017-09-15T18:12:52.615Z,2.17
2017-09-15T18:15:22.273Z,2.67
2017-09-15T18:17:50.658Z,2.50
2017-09-15T18:20:19.236Z,2.80
2017-09-15T18:22:47.612Z,2.30
2017-09-15T18:25:16.298Z,2.37
2017-09-15T18:27:44.650Z,3.00
2017-09-15T18:30:12.983Z,2.47
2017-09-15T18:32:42.072Z,2.90
2017-09-15T18:35:10.430Z,2.80
2017-09-15T18:37:38.775Z,3.20
2017-09-15T18:40:07.160Z,2.90
2017-09-15T18:42:35.494Z,2.30
2017-09-15T18:45:04.131Z,2.60
2017-09-15T18:47:32.467Z,3.10
2017-09-15T18:50:01.616Z,3.10
2017-09-15T18:52:30.013Z,3.97
2017-09-15T18:54:58.369Z,3.80
2017-09-15T18:57:26.733Z,3.00
2017-09-15T18:59:55.114Z,3.20
2017-09-15T19:02:23.469Z,2.90
2017-09-15T19:04:52.948Z,3.57
2017-09-15T19:07:21.371Z,3.30
2017-09-15T19:09:49.989Z,3.50
2017-09-15T19:12:18.402Z,3.67
2017-09-15T19:14:46.832Z,3.97
2017-09-15T19:17:15.173Z,4.27
2017-09-15T19:19:44.565Z,3.93
2017-09-15T19:22:12.912Z,3.40
2017-09-15T19:24:41.378Z,4.27
2017-09-15T19:27:09.718Z,5.10
2017-09-15T19:29:38.808Z,4.40
2017-09-15T19:32:07.331Z,3.73
2017-09-15T19:34:36.601Z,5.77
2017-09-15T19:37:12.283Z,4.13
2017-09-15T19:39:40.735Z,4.57
2017-09-15T19:42:10.059Z,4.63
2017-09-15T19:44:38.448Z,4.30
2017-09-15T19:47:06.773Z,5.10
2017-09-15T19:49:35.109Z,3.67
2017-09-15T19:52:03.454Z,3.70
2017-09-15T19:54:32.373Z,4.23
2017-09-15T19:57:00.695Z,4.07
2017-09-15T19:59:29.534Z,4.77
2017-09-15T20:01:58.482Z,4.53
2017-09-15T20:04:27.356Z,4.60
2017-09-15T20:06:56.287Z,4.00
2017-09-15T20:09:25.954Z,3.67
2017-09-15T20:11:54.923Z,3.87
2017-09-15T20:14:23.765Z,4.50
2017-09-15T20:16:52.664Z,4.30
2017-09-15T20:19:21.371Z,4.30
2017-09-15T20:21:49.708Z,5.10
2017-09-15T20:24:18.042Z,4.10
2017-09-15T20:26:46.405Z,4.27
2017-09-15T20:29:15.516Z,4.83
2017-09-15T20:31:43.862Z,4.87
2017-09-15T20:34:12.181Z,4.40
2017-09-15T20:36:40.916Z,5.23
2017-09-15T20:39:09.275Z,6.00
2017-09-15T20:41:37.593Z,5.77
2017-09-15T20:44:05.949Z,5.23
2017-09-15T20:46:34.285Z,4.77
2017-09-15T20:49:02.622Z,3.73
2017-09-15T20:51:30.954Z,3.83
2017-09-15T20:53:59.559Z,4.20
2017-09-15T20:56:27.883Z,4.10
2017-09-15T20:58:56.964Z,4.13
2017-09-15T21:01:25.305Z,3.70
2017-09-15T21:03:53.637Z,3.90
2017-09-15T21:06:22.959Z,4.00
2017-09-15T21:08:52.063Z,4.90
2017-09-15T21:11:20.664Z,4.10
2017-09-15T21:13:49.029Z,4.70
2017-09-15T21:16:17.349Z,3.30
2017-09-15T21:18:45.707Z,3.67
2017-09-15T21:21:14.051Z,4.50
2017-09-15T21:23:42.421Z,4.10
2017-09-15T21:26:10.931Z,4.10
2017-09-15T21:28:39.533Z,3.90
2017-09-15T21:31:08.641Z,3.83
2017-09-15T21:33:36.987Z,3.80
2017-09-15T21:36:05.325Z,4.37
2017-09-15T21:38:33.649Z,3.97
2017-09-15T21:41:01.990Z,4.40
2017-09-15T21:43:30.310Z,4.33
2017-09-15T21:45:58.654Z,4.70
2017-09-15T21:48:26.978Z,4.83
2017-09-15T21:50:55.368Z,4.67
2017-09-15T21:53:23.713Z,4.87
2017-09-15T21:55:52.795Z,5.63
2017-09-15T21:58:21.174Z,6.33
2017-09-15T22:00:49.504Z,8.70
2017-09-15T22:03:18.393Z,5.80
2017-09-15T22:05:48.905Z,4.77
2017-09-15T22:08:17.396Z,4.40
2017-09-15T22:10:45.742Z,3.40
2017-09-15T22:13:14.861Z,3.60
2017-09-15T22:15:43.207Z,4.27
2017-09-15T22:18:11.540Z,4.40
2017-09-15T22:20:39.897Z,4.30
2017-09-15T22:23:08.246Z,4.70
2017-09-15T22:25:36.614Z,3.67
2017-09-15T22:28:04.978Z,4.30
2017-09-15T22:30:33.294Z,3.63
2017-09-15T22:33:02.404Z,4.13
2017-09-15T22:35:30.742Z,3.57
2017-09-15T22:37:59.092Z,3.60
2017-09-15T22:40:27.406Z,3.03
2017-09-15T22:42:55.743Z,3.30
2017-09-15T22:45:24.079Z,2.87
2017-09-15T22:47:53.159Z,2.90
2017-09-15T22:50:21.506Z,3.80
2017-09-15T22:52:49.829Z,3.67
2017-09-15T22:55:18.426Z,3.80
2017-09-15T22:57:47.545Z,4.40
2017-09-15T23:00:15.869Z,3.90
2017-09-15T23:02:44.212Z,3.37
2017-09-15T23:05:12.520Z,4.03
2017-09-15T23:07:40.881Z,3.80
2017-09-15T23:10:09.195Z,3.63
2017-09-15T23:12:37.806Z,4.00
2017-09-15T23:15:06.904Z,3.50
2017-09-15T23:17:36.002Z,4.20
2017-09-15T23:20:05.097Z,4.03
2017-09-15T23:22:34.175Z,3.70
2017-09-15T23:25:02.515Z,4.43
2017-09-15T23:27:30.831Z,3.57
2017-09-15T23:29:59.167Z,4.60
2017-09-15T23:32:27.498Z,3.73
2017-09-15T23:34:56.596Z,4.27
2017-09-15T23:37:25.698Z,5.67
2017-09-15T23:39:54.776Z,3.60
2017-09-15T23:42:23.364Z,4.17
2017-09-15T23:44:51.676Z,5.50
2017-09-15T23:47:19.991Z,3.43
2017-09-15T23:49:48.348Z,3.53
2017-09-15T23:52:16.690Z,6.57
2017-09-15T23:54:45.805Z,4.63
2017-09-15T23:57:14.141Z,3.87
2017-09-15T23:59:42.495Z,3.50
